createdAt,value
2022-09-12T00:06:22.765Z,100
2022-09-12T00:16:20.531Z,100
2022-09-12T00:26:20.997Z,100
2022-09-12T00:36:21.622Z,100
2022-09-12T00:46:22.139Z,100
2022-09-12T00:56:22.250Z,100
2022-09-12T01:06:23.251Z,100
2022-09-12T01:16:24.184Z,100
2022-09-12T01:26:24.887Z,100
2022-09-12T01:36:25.393Z,100
2022-09-12T01:46:25.780Z,100
2022-09-12T01:56:26.494Z,100
2022-09-12T02:06:26.694Z,100
2022-09-12T02:16:26.855Z,100
2022-09-12T02:26:27.389Z,100
2022-09-12T02:36:27.504Z,100
2022-09-12T02:46:28.504Z,100
2022-09-12T02:56:28.971Z,100
2022-09-12T03:06:29.711Z,100
2022-09-12T03:16:30.270Z,100
2022-09-12T03:26:30.806Z,100
2022-09-12T03:36:31.380Z,100
2022-09-12T03:46:31.829Z,100
2022-09-12T04:06:33.027Z,100
2022-09-12T04:16:33.623Z,100
2022-09-12T04:26:33.803Z,100
2022-09-12T04:36:34.173Z,100
2022-09-12T04:46:34.375Z,100
2022-09-12T04:56:34.672Z,100
2022-09-12T05:06:35.569Z,100
2022-09-12T05:16:36.218Z,100
2022-09-12T05:26:36.971Z,100
2022-09-12T05:36:37.711Z,100
2022-09-12T05:46:38.266Z,100
2022-09-12T05:56:38.728Z,100
2022-09-12T06:06:38.927Z,100
2022-09-12T06:16:39.661Z,100
2022-09-12T06:26:40.501Z,100
2022-09-12T06:36:40.868Z,100
2022-09-12T06:46:41.937Z,100
2022-09-12T06:56:42.281Z,100
2022-09-12T07:06:43.243Z,100
2022-09-12T07:16:43.442Z,100
2022-09-12T07:26:43.560Z,100
2022-09-12T07:36:44.563Z,100
2022-09-12T07:56:44.940Z,100
2022-09-12T08:06:45.612Z,100
2022-09-12T08:26:47.173Z,100
2022-09-12T08:36:48.158Z,99
2022-09-12T08:46:48.712Z,99
2022-09-12T08:56:49.258Z,98
2022-09-12T09:16:50.119Z,97
2022-09-12T09:26:50.219Z,97
2022-09-12T09:36:51.353Z,96
2022-09-12T09:46:51.797Z,95
2022-09-12T09:56:52.493Z,94
2022-09-12T10:06:52.706Z,92
2022-09-12T10:16:53.654Z,89
2022-09-12T10:26:56.678Z,88
2022-09-12T10:47:01.793Z,80
2022-09-12T10:57:02.051Z,78
2022-09-12T11:07:02.819Z,73
2022-09-12T11:17:03.845Z,70
2022-09-12T11:27:03.936Z,68
2022-09-12T11:37:07.501Z,64
2022-09-12T11:47:04.819Z,65
2022-09-12T11:57:04.976Z,65
2022-09-12T12:17:05.969Z,61
2022-09-12T12:27:06.883Z,59
2022-09-12T12:37:07.471Z,59
2022-09-12T12:47:08.029Z,55
2022-09-12T12:57:08.418Z,56
2022-09-12T13:07:09.088Z,54
2022-09-12T13:17:09.372Z,54
2022-09-12T13:27:10.293Z,54
2022-09-12T13:37:10.882Z,52
2022-09-12T13:57:11.169Z,52
2022-09-12T14:07:11.957Z,52
2022-09-12T14:17:15.748Z,52
2022-09-12T14:27:13.296Z,51
2022-09-12T14:47:14.978Z,51
2022-09-12T14:57:15.260Z,50
2022-09-12T15:07:15.552Z,50
2022-09-12T15:37:17.299Z,50
2022-09-12T15:57:18.414Z,50
2022-09-12T16:07:19.371Z,51
2022-09-12T16:17:19.634Z,52
2022-09-12T16:57:22.501Z,55
2022-09-12T17:07:22.750Z,56
2022-09-12T17:17:23.095Z,57
2022-09-12T17:27:24.055Z,58
2022-09-12T17:37:24.787Z,59
2022-09-12T17:47:25.853Z,62
2022-09-12T17:57:26.848Z,65
2022-09-12T18:07:27.620Z,68
2022-09-12T18:17:28.028Z,71
2022-09-12T18:27:28.665Z,73
2022-09-12T18:37:29.353Z,76
2022-09-12T18:47:29.677Z,77
2022-09-12T18:57:30.233Z,79
2022-09-12T19:07:30.942Z,80
2022-09-12T19:17:31.534Z,82
2022-09-12T19:27:31.913Z,83
2022-09-12T19:37:32.526Z,83
2022-09-12T19:47:33.191Z,84
2022-09-12T19:57:34.241Z,85
2022-09-12T20:07:35.121Z,86
2022-09-12T20:27:35.860Z,87
2022-09-12T21:17:38.697Z,91
2022-09-12T21:27:39.189Z,91
2022-09-12T21:37:39.487Z,91
2022-09-12T22:07:40.841Z,92
2022-09-12T22:17:40.943Z,93
2022-09-12T22:27:41.575Z,93
2022-09-12T22:37:42.484Z,94
2022-09-12T22:47:43.429Z,94
2022-09-12T22:57:43.859Z,94
2022-09-12T23:07:44.103Z,94
2022-09-12T23:17:44.806Z,95
2022-09-12T23:27:45.219Z,95
2022-09-12T23:37:45.465Z,95
2022-09-12T23:47:45.659Z,94
